Time;durP1;ratioP1;P1;durP2;ratioP2;P2;SDS_P1;SDS_P2;PMS_P1;PMS_P2;Temp;Humidity;BMP_temperature;BMP_pressure;BME280_temperature;BME280_humidity;BME280_pressure;Samples;Min_cycle;Max_cycle;Signal;HPM_P1;HPM_P2
2021/12/11 00:01:15;;;;;;;58.03;34.08;;;-0.40;99.90;;;;;;2096588;28;20028;-73
2021/12/11 00:02:21;;;;;;;64.93;36.95;;;-0.50;99.90;;;;;;2096417;28;20078;-74
2021/12/11 00:03:38;;;;;;;67.05;39.08;;;-0.50;99.90;;;;;;2093858;28;20253;-73
2021/12/11 00:04:43;;;;;;;68.13;38.13;;;-0.40;99.90;;;;;;2096132;28;20028;-72
2021/12/11 00:05:48;;;;;;;66.85;37.97;;;-0.40;99.90;;;;;;2096262;28;20035;-72
2021/12/11 00:06:53;;;;;;;66.03;38.75;;;-0.30;99.90;;;;;;2096931;28;20047;-73
2021/12/11 00:07:54;;;;;;;65.75;38.05;;;-0.30;99.90;;;;;;2096765;28;20024;-73
2021/12/11 00:08:58;;;;;;;65.10;37.63;;;-0.30;99.90;;;;;;2095869;28;20040;-73
2021/12/11 00:10:16;;;;;;;64.53;36.63;;;-0.30;99.90;;;;;;2096247;28;20017;-73
2021/12/11 00:11:28;;;;;;;62.28;36.95;;;-0.40;99.90;;;;;;2097633;28;20025;-73
2021/12/11 00:12:35;;;;;;;61.58;35.78;;;-0.40;99.90;;;;;;2097836;28;20029;-73
2021/12/11 00:13:38;;;;;;;61.40;36.67;;;-0.40;99.90;;;;;;2097497;28;20470;-73
2021/12/11 00:14:47;;;;;;;58.47;34.58;;;-0.40;99.90;;;;;;2096936;28;20028;-73
2021/12/11 00:15:48;;;;;;;61.80;35.78;;;-0.50;99.90;;;;;;2096736;28;20031;-72
2021/12/11 00:16:50;;;;;;;60.53;35.67;;;-0.50;99.90;;;;;;2096768;28;20475;-73
2021/12/11 00:18:01;;;;;;;62.88;37.13;;;-0.50;99.90;;;;;;2096802;28;20055;-73
2021/12/11 00:19:07;;;;;;;64.30;37.17;;;-0.50;99.90;;;;;;2097075;28;20017;-73
2021/12/11 00:20:16;;;;;;;60.45;36.25;;;-0.50;99.90;;;;;;2097636;28;20056;-74
2021/12/11 00:21:18;;;;;;;68.72;39.28;;;-0.50;99.90;;;;;;2097020;28;20032;-73
2021/12/11 00:22:22;;;;;;;64.60;37.03;;;-0.50;99.90;;;;;;2096502;28;20025;-74
2021/12/11 00:23:37;;;;;;;64.07;36.63;;;-0.50;99.90;;;;;;2093707;28;20047;-73
2021/12/11 00:24:39;;;;;;;62.42;36.40;;;-0.50;99.90;;;;;;2095890;28;20025;-73
2021/12/11 00:25:44;;;;;;;58.65;34.15;;;-0.50;99.90;;;;;;2095766;28;20028;-74
2021/12/11 00:26:51;;;;;;;54.17;32.70;;;-0.50;99.90;;;;;;2096425;28;20032;-73
2021/12/11 00:27:58;;;;;;;54.90;33.38;;;-0.60;99.90;;;;;;2096420;28;20025;-73
2021/12/11 00:28:59;;;;;;;55.55;32.38;;;-0.60;99.90;;;;;;2096690;28;20567;-74
2021/12/11 00:30:01;;;;;;;52.35;31.48;;;-0.60;99.90;;;;;;2096906;28;20021;-73
2021/12/11 00:31:04;;;;;;;51.33;30.42;;;-0.70;99.90;;;;;;2096683;28;20079;-73
2021/12/11 00:32:12;;;;;;;50.42;30.52;;;-0.70;99.90;;;;;;2095709;28;20028;-74
2021/12/11 00:33:25;;;;;;;55.40;31.48;;;-0.70;99.90;;;;;;2096503;28;20078;-74
2021/12/11 00:34:26;;;;;;;54.65;32.10;;;-0.70;99.90;;;;;;2096676;28;20097;-74
2021/12/11 00:35:27;;;;;;;57.88;33.50;;;-0.70;99.90;;;;;;2096552;28;20491;-73
2021/12/11 00:36:32;;;;;;;60.15;35.40;;;-0.70;99.90;;;;;;2097290;28;20067;-74
2021/12/11 00:37:33;;;;;;;61.40;35.85;;;-0.70;99.90;;;;;;2096753;28;20384;-73
2021/12/11 00:38:34;;;;;;;64.32;36.92;;;-0.70;99.90;;;;;;2095891;28;20096;-73
2021/12/11 00:39:57;;;;;;;68.20;39.30;;;-0.60;99.90;;;;;;2096483;28;20384;-73
2021/12/11 00:40:58;;;;;;;67.75;38.20;;;-0.60;99.90;;;;;;2087665;28;20079;-73
2021/12/11 00:42:05;;;;;;;66.80;37.70;;;-0.60;99.90;;;;;;2087474;28;20537;-73
2021/12/11 00:43:08;;;;;;;69.00;37.53;;;-0.50;99.90;;;;;;2089286;28;20061;-73
2021/12/11 00:44:08;;;;;;;63.90;37.22;;;-0.50;99.90;;;;;;2097501;28;20033;-73
2021/12/11 00:45:20;;;;;;;62.75;35.80;;;-0.50;99.90;;;;;;2097732;28;20515;-73
2021/12/11 00:46:26;;;;;;;64.63;36.33;;;-0.60;99.90;;;;;;2098273;28;20020;-72
2021/12/11 00:47:30;;;;;;;65.95;37.47;;;-0.50;99.90;;;;;;2098496;28;20033;-73
2021/12/11 00:48:32;;;;;;;64.32;37.72;;;-0.50;99.90;;;;;;2097447;28;20042;-73
2021/12/11 00:49:32;;;;;;;65.90;38.15;;;-0.50;99.90;;;;;;2097695;28;20430;-73
2021/12/11 00:50:44;;;;;;;69.85;37.55;;;-0.50;99.90;;;;;;2098388;28;20040;-73
2021/12/11 00:51:55;;;;;;;65.50;37.25;;;-0.50;99.90;;;;;;2097609;28;20089;-73
2021/12/11 00:53:20;;;;;;;63.28;36.65;;;-0.50;99.90;;;;;;2097428;28;20028;-74
2021/12/11 00:54:21;;;;;;;66.05;37.15;;;-0.50;99.90;;;;;;2097824;28;20028;-73
2021/12/11 00:55:35;;;;;;;66.07;37.10;;;-0.50;99.90;;;;;;2097785;28;20056;-73
2021/12/11 00:56:40;;;;;;;68.47;37.42;;;-0.50;99.90;;;;;;2091795;28;20041;-73
2021/12/11 00:57:40;;;;;;;65.05;37.45;;;-0.50;99.90;;;;;;2097980;28;20070;-74
2021/12/11 00:58:43;;;;;;;65.00;37.15;;;-0.50;99.90;;;;;;2098223;28;20040;-72
2021/12/11 00:59:43;;;;;;;63.40;36.47;;;-0.50;99.90;;;;;;2098260;28;20035;-73
2021/12/11 01:00:55;;;;;;;62.75;36.17;;;-0.50;99.90;;;;;;2097631;28;20032;-73
2021/12/11 01:01:58;;;;;;;60.85;35.25;;;-0.50;99.90;;;;;;2099449;28;20116;-73
2021/12/11 01:02:59;;;;;;;60.67;35.13;;;-0.50;99.90;;;;;;2100047;28;20112;-72
2021/12/11 01:04:06;;;;;;;62.30;34.88;;;-0.60;99.90;;;;;;2101271;28;20052;-74
2021/12/11 01:05:09;;;;;;;62.60;36.47;;;-0.60;99.90;;;;;;2098987;28;20048;-73
2021/12/11 01:06:14;;;;;;;64.78;36.83;;;-0.60;99.90;;;;;;2099870;28;20112;-72
2021/12/11 01:07:21;;;;;;;59.92;35.13;;;-0.60;99.90;;;;;;2100034;28;20061;-72
2021/12/11 01:08:32;;;;;;;65.03;36.65;;;-0.60;99.90;;;;;;2099555;28;20090;-73
2021/12/11 01:09:39;;;;;;;67.25;37.90;;;-0.60;99.90;;;;;;2098226;28;20032;-74
2021/12/11 01:10:40;;;;;;;65.25;37.20;;;-0.70;99.90;;;;;;2098125;28;20067;-73
2021/12/11 01:12:06;;;;;;;63.58;36.42;;;-0.70;99.90;;;;;;2089376;28;20104;-73
2021/12/11 01:13:10;;;;;;;63.92;36.55;;;-0.70;99.90;;;;;;2097600;28;20036;-73
2021/12/11 01:14:18;;;;;;;64.88;35.95;;;-0.80;99.90;;;;;;2097733;28;20093;-73
2021/12/11 01:15:47;;;;;;;62.20;35.10;;;-0.80;99.90;;;;;;2097464;28;20542;-73
2021/12/11 01:17:00;;;;;;;63.13;34.17;;;-0.80;99.90;;;;;;2098229;28;20041;-73
2021/12/11 01:19:17;;;;;;;61.47;33.53;;;-0.90;99.90;;;;;;2097872;28;20396;-72
2021/12/11 01:20:35;;;;;;;62.25;34.35;;;-0.90;99.90;;;;;;2097504;28;20041;-73
2021/12/11 01:22:42;;;;;;;59.67;33.50;;;-1.00;99.90;;;;;;2089457;28;20114;-73
2021/12/11 01:23:57;;;;;;;63.33;34.90;;;-1.00;99.90;;;;;;2088943;28;20039;-73
2021/12/11 01:25:04;;;;;;;64.80;36.75;;;-1.00;99.90;;;;;;2088545;28;20025;-73
2021/12/11 01:26:10;;;;;;;65.57;35.78;;;-1.00;99.90;;;;;;2095909;28;20035;-73
2021/12/11 01:27:14;;;;;;;61.95;34.78;;;-1.00;99.90;;;;;;2097791;28;20859;-73
2021/12/11 01:28:15;;;;;;;61.75;35.13;;;-1.00;99.90;;;;;;2089433;28;20396;-73
2021/12/11 01:29:18;;;;;;;65.28;35.42;;;-1.00;99.90;;;;;;2097416;28;20055;-73
2021/12/11 01:30:25;;;;;;;66.90;35.78;;;-1.00;99.90;;;;;;2097979;28;20025;-73
2021/12/11 01:31:27;;;;;;;61.10;34.63;;;-1.10;99.90;;;;;;2097943;28;20487;-74
2021/12/11 01:32:30;;;;;;;62.05;35.08;;;-1.10;99.90;;;;;;2098019;28;20099;-73
2021/12/11 01:33:31;;;;;;;69.03;37.63;;;-1.10;99.90;;;;;;2097980;28;20095;-73
2021/12/11 01:34:33;;;;;;;66.05;35.85;;;-1.10;99.90;;;;;;2098104;28;20063;-73
2021/12/11 01:35:33;;;;;;;66.55;36.92;;;-1.10;99.90;;;;;;2097162;28;20028;-73
2021/12/11 01:36:34;;;;;;;66.00;36.90;;;-1.10;99.90;;;;;;2097395;28;20029;-73
2021/12/11 01:37:37;;;;;;;64.10;36.58;;;-1.10;99.90;;;;;;2097361;28;20017;-73
2021/12/11 01:38:39;;;;;;;66.95;36.85;;;-1.10;99.90;;;;;;2098012;28;20365;-73
2021/12/11 01:39:41;;;;;;;64.88;35.40;;;-1.10;99.90;;;;;;2098068;28;20033;-73
2021/12/11 01:40:47;;;;;;;62.50;35.08;;;-1.10;99.90;;;;;;2097699;28;20028;-73
2021/12/11 01:41:50;;;;;;;59.60;34.67;;;-1.10;99.90;;;;;;2097195;28;20024;-73
2021/12/11 01:42:50;;;;;;;63.60;34.92;;;-1.20;99.90;;;;;;2097920;28;20047;-73
2021/12/11 01:43:55;;;;;;;64.18;36.53;;;-1.10;99.90;;;;;;2097875;28;20547;-74
2021/12/11 01:44:58;;;;;;;64.88;36.55;;;-1.20;99.90;;;;;;2096574;28;20511;-73
2021/12/11 01:46:01;;;;;;;65.47;36.53;;;-1.10;99.90;;;;;;2095674;28;20024;-73
2021/12/11 01:47:09;;;;;;;64.63;36.30;;;-1.20;99.90;;;;;;2097372;28;20029;-73
2021/12/11 01:48:10;;;;;;;62.25;35.13;;;-1.20;99.90;;;;;;2096753;28;20032;-73
2021/12/11 01:49:15;;;;;;;59.08;33.58;;;-1.20;99.90;;;;;;2097214;28;20052;-73
2021/12/11 01:50:22;;;;;;;61.00;34.72;;;-1.20;99.90;;;;;;2096128;28;20555;-74
2021/12/11 01:51:32;;;;;;;62.85;34.45;;;-1.20;99.90;;;;;;2096320;28;20035;-73
2021/12/11 01:52:39;;;;;;;57.92;32.88;;;-1.20;99.90;;;;;;2088148;28;20029;-73
2021/12/11 01:53:44;;;;;;;61.42;34.08;;;-1.30;99.90;;;;;;2088889;28;20029;-72
2021/12/11 01:54:47;;;;;;;61.78;34.53;;;-1.30;99.90;;;;;;2097957;28;20016;-73
2021/12/11 01:56:00;;;;;;;60.33;33.60;;;-1.30;99.90;;;;;;2098096;28;20832;-73
2021/12/11 01:57:07;;;;;;;61.47;32.80;;;-1.30;99.90;;;;;;2097881;28;20039;-72
2021/12/11 01:58:13;;;;;;;57.00;32.65;;;-1.40;99.90;;;;;;2097903;28;20036;-72
2021/12/11 01:59:23;;;;;;;59.47;33.75;;;-1.40;99.90;;;;;;2098076;28;20028;-73
2021/12/11 02:00:33;;;;;;;59.85;33.92;;;-1.40;99.90;;;;;;2098126;28;20025;-72
2021/12/11 02:01:46;;;;;;;57.22;32.33;;;-1.50;99.90;;;;;;2097401;28;20028;-72
2021/12/11 02:02:50;;;;;;;62.13;33.33;;;-1.50;99.90;;;;;;2088929;28;20028;-73
2021/12/11 02:03:53;;;;;;;60.78;33.28;;;-1.50;99.90;;;;;;2089477;28;20188;-73
2021/12/11 02:04:55;;;;;;;59.95;33.60;;;-1.50;99.90;;;;;;2096380;28;20073;-73
2021/12/11 02:05:57;;;;;;;58.13;33.22;;;-1.50;99.90;;;;;;2097700;28;20013;-73
2021/12/11 02:07:03;;;;;;;62.65;34.15;;;-1.60;99.90;;;;;;2097731;28;20029;-73
2021/12/11 02:08:08;;;;;;;58.83;32.88;;;-1.60;99.90;;;;;;2098022;28;20021;-73
2021/12/11 02:09:31;;;;;;;59.80;33.60;;;-1.60;99.90;;;;;;2097693;28;20013;-73
2021/12/11 02:10:54;;;;;;;60.75;32.78;;;-1.60;99.90;;;;;;2090486;28;20033;-72
2021/12/11 02:12:10;;;;;;;59.20;31.98;;;-1.70;99.90;;;;;;2096913;28;20020;-72
2021/12/11 02:13:17;;;;;;;61.10;33.25;;;-1.70;99.90;;;;;;2096487;28;20039;-73
2021/12/11 02:14:26;;;;;;;60.25;33.25;;;-1.70;99.90;;;;;;2097052;28;20066;-72
2021/12/11 02:15:34;;;;;;;61.78;33.97;;;-1.70;99.90;;;;;;2097371;28;20032;-72
2021/12/11 02:16:49;;;;;;;58.58;32.78;;;-1.70;99.90;;;;;;2097883;28;20081;-72
2021/12/11 02:18:16;;;;;;;62.25;33.97;;;-1.70;99.90;;;;;;2097989;28;20028;-73
2021/12/11 02:19:32;;;;;;;61.80;33.42;;;-1.70;99.90;;;;;;2096855;28;20686;-72
2021/12/11 02:20:38;;;;;;;65.78;34.05;;;-1.70;99.90;;;;;;2097580;28;20547;-73
2021/12/11 02:21:57;;;;;;;69.13;36.20;;;-1.70;99.90;;;;;;2097016;28;20388;-73
2021/12/11 02:22:58;;;;;;;68.47;36.28;;;-1.70;99.90;;;;;;2097645;28;20047;-73
2021/12/11 02:24:07;;;;;;;67.72;36.28;;;-1.70;99.90;;;;;;2097833;28;20090;-72
2021/12/11 02:25:17;;;;;;;67.90;36.35;;;-1.70;99.90;;;;;;2088258;28;20036;-74
2021/12/11 02:26:18;;;;;;;71.53;37.08;;;-1.80;99.90;;;;;;2088745;28;20044;-73
2021/12/11 02:27:25;;;;;;;68.13;35.60;;;-1.80;99.90;;;;;;2088783;28;20029;-73
2021/12/11 02:28:34;;;;;;;66.43;35.88;;;-1.80;99.90;;;;;;2089894;28;20036;-73
2021/12/11 02:29:41;;;;;;;66.70;35.50;;;-1.80;99.90;;;;;;2097441;28;20069;-73
2021/12/11 02:30:51;;;;;;;67.32;35.72;;;-1.80;99.90;;;;;;2097737;28;20051;-73
2021/12/11 02:32:03;;;;;;;66.25;35.20;;;-1.80;99.90;;;;;;2097670;28;20448;-73
2021/12/11 02:33:22;;;;;;;65.47;34.60;;;-1.80;99.90;;;;;;2097106;28;20040;-73
2021/12/11 02:34:33;;;;;;;64.63;33.90;;;-1.80;99.90;;;;;;2096548;28;20123;-73
2021/12/11 02:35:38;;;;;;;67.22;34.65;;;-1.80;99.90;;;;;;2089513;28;20037;-73
2021/12/11 02:36:53;;;;;;;64.10;34.83;;;-1.80;99.90;;;;;;2097374;28;20098;-73
2021/12/11 02:38:09;;;;;;;72.78;37.50;;;-1.80;99.90;;;;;;2097554;28;20037;-73
2021/12/11 02:39:25;;;;;;;69.43;36.22;;;-1.80;99.90;;;;;;2097515;28;20092;-73
2021/12/11 02:40:43;;;;;;;63.53;35.22;;;-1.70;99.90;;;;;;2091273;28;20382;-73
2021/12/11 02:42:03;;;;;;;67.15;35.42;;;-1.80;99.90;;;;;;2090434;28;20424;-73
2021/12/11 02:43:22;;;;;;;66.13;35.50;;;-1.70;99.90;;;;;;2097363;28;20041;-73
2021/12/11 02:44:31;;;;;;;65.43;35.60;;;-1.80;99.90;;;;;;2090131;28;20041;-74
2021/12/11 02:46:10;;;;;;;68.93;35.95;;;-1.80;99.90;;;;;;2097784;28;20177;-74
2021/12/11 02:47:39;;;;;;;68.78;34.80;;;-1.80;99.90;;;;;;2088827;28;20037;-73
2021/12/11 02:48:50;;;;;;;65.10;34.08;;;-1.80;99.90;;;;;;2084849;28;20120;-74
2021/12/11 02:50:02;;;;;;;65.35;34.38;;;-1.80;99.90;;;;;;2092113;28;20036;-73
2021/12/11 02:51:17;;;;;;;62.92;33.58;;;-1.90;99.90;;;;;;2098470;28;20043;-74
2021/12/11 02:52:30;;;;;;;63.00;33.42;;;-1.90;99.90;;;;;;2097334;28;20498;-73
2021/12/11 02:53:54;;;;;;;63.33;33.78;;;-1.90;99.90;;;;;;2097097;28;20032;-74
2021/12/11 02:55:03;;;;;;;64.75;34.90;;;-1.90;99.90;;;;;;2096584;28;20021;-73
2021/12/11 02:56:15;;;;;;;62.85;34.83;;;-1.90;99.90;;;;;;2097551;28;20499;-73
2021/12/11 02:57:33;;;;;;;67.05;35.17;;;-1.90;99.90;;;;;;2096330;28;20148;-74
2021/12/11 02:58:39;;;;;;;63.70;34.05;;;-1.90;99.90;;;;;;2090966;28;20109;-73
2021/12/11 02:59:43;;;;;;;65.30;35.25;;;-1.90;99.90;;;;;;2097468;28;20056;-73
2021/12/11 03:00:50;;;;;;;64.85;35.42;;;-2.00;99.90;;;;;;2097650;28;20558;-74
2021/12/11 03:01:56;;;;;;;66.10;35.78;;;-2.00;99.90;;;;;;2097267;28;20559;-73
2021/12/11 03:03:03;;;;;;;64.47;34.45;;;-2.00;99.90;;;;;;2096609;28;20028;-73
2021/12/11 03:04:17;;;;;;;64.25;34.67;;;-2.00;99.90;;;;;;2096952;28;20027;-73
2021/12/11 03:05:23;;;;;;;65.53;34.67;;;-2.00;99.90;;;;;;2096420;28;20025;-73
2021/12/11 03:06:27;;;;;;;62.78;33.97;;;-2.00;99.90;;;;;;2097130;28;20085;-73
2021/12/11 03:07:38;;;;;;;65.50;34.55;;;-2.00;99.90;;;;;;2097344;28;20515;-73
2021/12/11 03:08:40;;;;;;;65.03;34.95;;;-2.00;99.90;;;;;;2098459;28;20028;-73
2021/12/11 03:09:50;;;;;;;66.60;34.78;;;-2.00;99.90;;;;;;2098054;28;20040;-73
2021/12/11 03:10:55;;;;;;;63.45;34.92;;;-2.00;99.90;;;;;;2089558;28;20059;-73
2021/12/11 03:11:58;;;;;;;64.90;35.13;;;-2.00;99.90;;;;;;2089118;28;20405;-73
2021/12/11 03:12:59;;;;;;;65.65;34.67;;;-2.00;99.90;;;;;;2097217;28;20107;-73
2021/12/11 03:14:03;;;;;;;64.10;34.40;;;-2.00;99.90;;;;;;2097775;28;20043;-73
2021/12/11 03:15:07;;;;;;;65.45;34.85;;;-2.00;99.90;;;;;;2097299;28;20032;-74
2021/12/11 03:16:08;;;;;;;63.78;34.30;;;-2.00;99.90;;;;;;2097875;28;20387;-74
2021/12/11 03:17:09;;;;;;;65.32;35.50;;;-2.10;99.90;;;;;;2097680;28;20032;-74
2021/12/11 03:18:11;;;;;;;64.50;35.25;;;-2.10;99.90;;;;;;2096807;28;20520;-75
2021/12/11 03:19:16;;;;;;;67.10;34.95;;;-2.10;99.90;;;;;;2097058;28;20032;-72
2021/12/11 03:20:20;;;;;;;68.85;35.95;;;-2.10;99.90;;;;;;2097173;28;20035;-72
2021/12/11 03:21:21;;;;;;;64.90;33.70;;;-2.10;99.90;;;;;;2098396;28;20063;-75
2021/12/11 03:22:33;;;;;;;65.15;34.60;;;-2.10;99.90;;;;;;2091356;28;20112;-72
2021/12/11 03:23:34;;;;;;;60.38;33.25;;;-2.10;99.90;;;;;;2098142;28;20078;-73
2021/12/11 03:24:36;;;;;;;71.28;35.88;;;-2.10;99.90;;;;;;2097769;28;20109;-73
2021/12/11 03:25:38;;;;;;;64.93;34.45;;;-2.10;99.90;;;;;;2096927;28;20055;-73
2021/12/11 03:26:41;;;;;;;64.22;34.20;;;-2.10;99.90;;;;;;2098100;28;20013;-75
2021/12/11 03:27:41;;;;;;;64.00;34.42;;;-2.10;99.90;;;;;;2098089;28;20033;-73
2021/12/11 03:28:43;;;;;;;62.47;34.33;;;-2.10;99.90;;;;;;2098443;28;20082;-73
2021/12/11 03:29:44;;;;;;;65.30;35.63;;;-2.10;99.90;;;;;;2097377;28;20035;-74
2021/12/11 03:30:59;;;;;;;65.78;34.70;;;-2.10;99.90;;;;;;2089429;28;20055;-74
2021/12/11 03:32:00;;;;;;;67.35;35.83;;;-2.10;99.90;;;;;;2090112;28;20464;-73
2021/12/11 03:33:06;;;;;;;65.55;34.75;;;-2.10;99.90;;;;;;2096753;28;20025;-73
2021/12/11 03:34:10;;;;;;;64.40;34.72;;;-2.10;99.90;;;;;;2097813;28;20044;-74
2021/12/11 03:35:11;;;;;;;67.57;36.13;;;-2.10;99.90;;;;;;2097112;28;20040;-75
2021/12/11 03:36:16;;;;;;;67.07;36.15;;;-2.10;99.90;;;;;;2096933;28;20163;-75
2021/12/11 03:37:19;;;;;;;65.47;35.55;;;-2.10;99.90;;;;;;2098047;28;20146;-72
2021/12/11 03:38:19;;;;;;;64.72;35.72;;;-2.10;99.90;;;;;;2097452;28;20039;-72
2021/12/11 03:39:24;;;;;;;65.65;35.67;;;-2.10;99.90;;;;;;2096838;28;20043;-73
2021/12/11 03:40:27;;;;;;;66.30;35.40;;;-2.10;99.90;;;;;;2098468;28;20039;-74
2021/12/11 03:41:28;;;;;;;69.97;36.47;;;-2.10;99.90;;;;;;2098984;28;20060;-72
2021/12/11 03:42:35;;;;;;;68.28;35.80;;;-2.10;99.90;;;;;;2099411;28;20606;-73
2021/12/11 03:43:37;;;;;;;66.57;34.30;;;-2.20;99.90;;;;;;2090386;28;20055;-74
2021/12/11 03:44:39;;;;;;;64.13;34.63;;;-2.20;99.90;;;;;;2097349;28;20020;-74
2021/12/11 03:45:42;;;;;;;64.03;34.00;;;-2.20;99.90;;;;;;2095917;28;20032;-73
2021/12/11 03:46:45;;;;;;;65.18;35.40;;;-2.20;99.90;;;;;;2088122;28;20075;-73
2021/12/11 03:47:52;;;;;;;61.72;33.90;;;-2.20;99.90;;;;;;2088701;28;20116;-73
2021/12/11 03:48:57;;;;;;;63.35;33.78;;;-2.20;99.90;;;;;;2096379;28;20597;-73
2021/12/11 03:49:58;;;;;;;65.07;34.40;;;-2.20;99.90;;;;;;2097323;28;20101;-73
2021/12/11 03:51:01;;;;;;;65.68;35.38;;;-2.20;99.90;;;;;;2097287;28;20074;-73
2021/12/11 03:52:04;;;;;;;63.40;34.70;;;-2.20;99.90;;;;;;2096209;28;20218;-72
2021/12/11 03:53:05;;;;;;;68.05;36.63;;;-2.20;99.90;;;;;;2096961;28;20059;-72
2021/12/11 03:54:10;;;;;;;67.43;36.22;;;-2.20;99.90;;;;;;2096910;28;20404;-73
2021/12/11 03:55:13;;;;;;;65.50;36.40;;;-2.20;99.90;;;;;;2096604;28;20064;-72
2021/12/11 03:56:16;;;;;;;65.85;35.28;;;-2.20;99.90;;;;;;2096937;28;20040;-73
2021/12/11 03:57:20;;;;;;;66.90;36.22;;;-2.20;99.90;;;;;;2096914;28;20036;-73
2021/12/11 03:58:21;;;;;;;62.63;34.30;;;-2.20;99.90;;;;;;2097169;28;20495;-73
2021/12/11 03:59:22;;;;;;;62.22;33.80;;;-2.30;99.90;;;;;;2096667;28;20066;-73
2021/12/11 04:00:26;;;;;;;64.20;34.53;;;-2.20;99.90;;;;;;2096161;28;20068;-73
2021/12/11 04:01:34;;;;;;;64.82;35.60;;;-2.30;99.90;;;;;;2095883;28;20048;-73
2021/12/11 04:02:35;;;;;;;69.00;35.90;;;-2.30;99.90;;;;;;2097054;28;20150;-72
2021/12/11 04:03:39;;;;;;;63.78;35.45;;;-2.30;99.90;;;;;;2096890;28;20625;-73
2021/12/11 04:04:45;;;;;;;66.72;36.42;;;-2.30;99.90;;;;;;2096793;28;20029;-73
2021/12/11 04:05:47;;;;;;;69.85;36.20;;;-2.30;99.90;;;;;;2097117;28;20488;-72
2021/12/11 04:06:48;;;;;;;64.78;35.60;;;-2.30;99.90;;;;;;2096529;28;20072;-73
2021/12/11 04:07:50;;;;;;;65.53;35.05;;;-2.30;99.90;;;;;;2096132;28;20390;-73
2021/12/11 04:08:52;;;;;;;70.32;36.30;;;-2.30;99.90;;;;;;2096751;28;20035;-73
2021/12/11 04:09:54;;;;;;;66.97;36.20;;;-2.30;99.90;;;;;;2093141;28;20020;-73
2021/12/11 04:10:56;;;;;;;67.28;35.85;;;-2.30;99.90;;;;;;2096826;28;20020;-73
2021/12/11 04:11:57;;;;;;;65.03;35.75;;;-2.30;99.90;;;;;;2096432;28;20024;-73
2021/12/11 04:13:02;;;;;;;67.28;35.45;;;-2.30;99.90;;;;;;2096961;28;20016;-73
2021/12/11 04:14:11;;;;;;;68.10;36.42;;;-2.30;99.90;;;;;;2096452;28;20040;-73
2021/12/11 04:15:12;;;;;;;68.47;35.90;;;-2.30;99.90;;;;;;2095731;28;20036;-73
2021/12/11 04:16:14;;;;;;;67.90;36.25;;;-2.30;99.90;;;;;;2096376;28;20042;-73
2021/12/11 04:17:21;;;;;;;69.35;36.63;;;-2.30;99.90;;;;;;2096696;28;20036;-73
2021/12/11 04:18:22;;;;;;;67.82;36.33;;;-2.30;99.90;;;;;;2088845;28;20025;-73
2021/12/11 04:19:23;;;;;;;67.32;36.22;;;-2.30;99.90;;;;;;2096057;28;20056;-73
2021/12/11 04:20:26;;;;;;;68.80;36.40;;;-2.30;99.90;;;;;;2096385;28;20033;-73
2021/12/11 04:21:27;;;;;;;69.72;36.08;;;-2.30;99.90;;;;;;2095895;28;20049;-73
2021/12/11 04:22:28;;;;;;;67.45;36.15;;;-2.30;99.90;;;;;;2096212;28;20040;-74
2021/12/11 04:23:29;;;;;;;68.70;36.00;;;-2.30;99.90;;;;;;2096635;28;20089;-73
2021/12/11 04:24:33;;;;;;;67.47;36.53;;;-2.30;99.90;;;;;;2096841;28;20488;-73
2021/12/11 04:25:34;;;;;;;68.97;36.35;;;-2.30;99.90;;;;;;2096498;28;20043;-73
2021/12/11 04:26:35;;;;;;;69.47;35.83;;;-2.30;99.90;;;;;;2096902;28;20031;-73
2021/12/11 04:27:36;;;;;;;72.35;38.40;;;-2.30;99.90;;;;;;2097056;28;20376;-73
2021/12/11 04:28:39;;;;;;;73.28;39.17;;;-2.30;99.90;;;;;;2096644;28;20021;-73
2021/12/11 04:29:41;;;;;;;71.72;38.75;;;-2.30;99.90;;;;;;2096104;28;20023;-73
2021/12/11 04:30:42;;;;;;;73.28;37.50;;;-2.30;99.90;;;;;;2097487;28;20052;-73
2021/12/11 04:31:46;;;;;;;72.05;37.17;;;-2.30;99.90;;;;;;2097518;28;20084;-73
2021/12/11 04:32:48;;;;;;;69.38;37.58;;;-2.30;99.90;;;;;;2097721;28;20082;-73
2021/12/11 04:33:52;;;;;;;72.13;36.72;;;-2.30;99.90;;;;;;2096410;28;20532;-73
2021/12/11 04:34:52;;;;;;;70.45;37.08;;;-2.30;99.90;;;;;;2095673;28;20511;-74
2021/12/11 04:35:53;;;;;;;71.00;36.70;;;-2.30;99.90;;;;;;2097050;28;20032;-74
2021/12/11 04:37:01;;;;;;;70.95;36.83;;;-2.40;99.90;;;;;;2096193;28;20036;-73
2021/12/11 04:38:06;;;;;;;69.68;36.35;;;-2.40;99.90;;;;;;2096158;28;20496;-73
2021/12/11 04:39:09;;;;;;;68.72;36.78;;;-2.40;99.90;;;;;;2096976;28;20495;-73
2021/12/11 04:40:22;;;;;;;69.00;36.38;;;-2.40;99.90;;;;;;2097086;28;20117;-74
2021/12/11 04:41:33;;;;;;;69.47;36.08;;;-2.40;99.90;;;;;;2096686;28;20025;-73
2021/12/11 04:42:59;;;;;;;74.65;36.65;;;-2.40;99.90;;;;;;2096473;28;20028;-73
2021/12/11 04:44:04;;;;;;;71.38;36.38;;;-2.40;99.90;;;;;;2096626;28;20663;-73
2021/12/11 04:45:13;;;;;;;68.15;35.30;;;-2.40;99.90;;;;;;2096247;28;20016;-73
2021/12/11 04:46:14;;;;;;;74.65;36.65;;;-2.40;99.90;;;;;;2098997;28;20024;-73
2021/12/11 04:47:29;;;;;;;71.22;37.25;;;-2.40;99.90;;;;;;2099616;28;20111;-74
2021/12/11 04:48:52;;;;;;;72.60;37.30;;;-2.40;99.90;;;;;;2094878;28;20044;-73
2021/12/11 04:49:58;;;;;;;69.22;35.45;;;-2.40;99.90;;;;;;2099149;28;20024;-73
2021/12/11 04:51:10;;;;;;;70.75;36.28;;;-2.50;99.90;;;;;;2092372;28;20025;-73
2021/12/11 04:52:18;;;;;;;72.05;36.88;;;-2.50;99.90;;;;;;2089823;28;20111;-73
2021/12/11 04:53:43;;;;;;;69.75;36.58;;;-2.50;99.90;;;;;;2098308;28;20028;-73
2021/12/11 04:55:14;;;;;;;74.28;36.72;;;-2.50;99.90;;;;;;2097231;28;20032;-73
2021/12/11 05:00:40;;;;;;;71.65;36.85;;;-2.50;99.90;;;;;;2096786;28;20043;-74
2021/12/11 05:02:01;;;;;;;68.68;35.78;;;-2.50;99.90;;;;;;2094758;28;20377;-73
2021/12/11 05:03:28;;;;;;;70.00;35.17;;;-2.50;99.90;;;;;;2095842;28;20025;-73
2021/12/11 05:07:01;;;;;;;70.53;36.22;;;-2.50;99.90;;;;;;2091917;28;20021;-73
2021/12/11 05:08:26;;;;;;;71.35;36.20;;;-2.50;99.90;;;;;;2096356;28;20078;-72
2021/12/11 05:09:41;;;;;;;;;;;-2.50;99.90;;;;;;2088735;28;20621;-73
2021/12/11 05:10:55;;;;;;;70.75;35.50;;;-2.50;99.90;;;;;;2096339;28;20423;-73
2021/12/11 05:12:28;;;;;;;72.25;36.22;;;-2.50;99.90;;;;;;2095646;28;20686;-73
2021/12/11 05:13:30;;;;;;;71.20;35.50;;;-2.50;99.90;;;;;;2095766;28;20507;-73
2021/12/11 05:14:31;;;;;;;71.85;37.50;;;-2.60;99.90;;;;;;2095350;28;20584;-72
2021/12/11 05:15:36;;;;;;;71.38;36.55;;;-2.50;99.90;;;;;;2095853;28;20081;-73
2021/12/11 05:16:37;;;;;;;71.43;35.80;;;-2.50;99.90;;;;;;2095735;28;20036;-73
2021/12/11 05:17:37;;;;;;;70.68;35.80;;;-2.60;99.90;;;;;;2095760;28;20104;-72
2021/12/11 05:18:41;;;;;;;71.82;35.50;;;-2.50;99.90;;;;;;2095939;28;20404;-73
2021/12/11 05:19:43;;;;;;;66.43;35.03;;;-2.50;99.90;;;;;;2096044;28;20044;-73
2021/12/11 05:20:46;;;;;;;65.93;35.47;;;-2.60;99.90;;;;;;2096572;28;20017;-73
2021/12/11 05:21:47;;;;;;;70.90;36.67;;;-2.50;99.90;;;;;;2095584;28;20048;-73
2021/12/11 05:22:48;;;;;;;69.97;36.28;;;-2.50;99.90;;;;;;2095758;28;20024;-73
2021/12/11 05:23:51;;;;;;;72.90;36.58;;;-2.60;99.90;;;;;;2095985;28;20060;-73
2021/12/11 05:24:56;;;;;;;68.22;36.38;;;-2.50;99.90;;;;;;2096007;28;20029;-73
2021/12/11 05:25:57;;;;;;;67.80;35.55;;;-2.50;99.90;;;;;;2096839;28;20801;-73
2021/12/11 05:26:58;;;;;;;71.95;36.15;;;-2.50;99.90;;;;;;2096568;28;20028;-73
2021/12/11 05:28:00;;;;;;;69.18;35.33;;;-2.50;99.90;;;;;;2096466;28;20095;-73
2021/12/11 05:29:01;;;;;;;73.93;38.50;;;-2.50;99.90;;;;;;2096157;28;20149;-72
2021/12/11 05:30:06;;;;;;;69.00;36.40;;;-2.50;99.90;;;;;;2097453;28;20392;-73
2021/12/11 05:31:08;;;;;;;68.15;36.05;;;-2.50;99.90;;;;;;2097444;28;20120;-72
2021/12/11 05:32:12;;;;;;;70.82;37.05;;;-2.50;99.90;;;;;;2088494;28;20032;-73
2021/12/11 05:33:15;;;;;;;75.70;38.65;;;-2.50;99.90;;;;;;2097224;28;20052;-72
2021/12/11 05:34:15;;;;;;;69.80;37.10;;;-2.50;99.90;;;;;;2097462;28;20507;-73
2021/12/11 05:35:18;;;;;;;72.22;37.83;;;-2.50;99.90;;;;;;2097326;28;20123;-73
2021/12/11 05:36:20;;;;;;;77.93;38.92;;;-2.50;99.90;;;;;;2097675;28;20048;-73
2021/12/11 05:37:21;;;;;;;70.63;37.72;;;-2.40;99.90;;;;;;2097074;28;20036;-73
2021/12/11 05:38:24;;;;;;;74.25;37.65;;;-2.50;99.90;;;;;;2097016;28;20037;-73
2021/12/11 05:39:25;;;;;;;70.00;36.28;;;-2.50;99.90;;;;;;2097688;28;20131;-73
2021/12/11 05:40:27;;;;;;;71.45;37.60;;;-2.50;99.90;;;;;;2097186;28;20453;-73
2021/12/11 05:41:28;;;;;;;69.93;37.20;;;-2.50;99.90;;;;;;2097136;28;20115;-74
2021/12/11 05:42:28;;;;;;;70.85;36.67;;;-2.50;99.90;;;;;;2097790;28;20139;-73
2021/12/11 05:43:31;;;;;;;70.10;35.60;;;-2.50;99.90;;;;;;2097761;28;20399;-73
2021/12/11 05:44:32;;;;;;;71.90;36.53;;;-2.50;99.90;;;;;;2097573;28;20103;-73
2021/12/11 05:45:32;;;;;;;70.10;36.15;;;-2.50;99.90;;;;;;2097135;28;20033;-73
2021/12/11 05:46:33;;;;;;;70.55;37.33;;;-2.50;99.90;;;;;;2097645;28;20032;-73
2021/12/11 05:47:34;;;;;;;69.43;36.58;;;-2.60;99.90;;;;;;2097917;28;20086;-73